Airport View

Enter AWOS ICAO identifier for current METAR.

ex. KFNL

KABQ 212252Z 33004KT 10SM SCT120 26/02 A2998 RMK AO2 SLP078 T02610022

21 Sep 2019 23:33

Phone: 505-242-4044

Other Area AWOS: KAEG - KE80 - K0E0 - KSAF

TAF KABQ 211729Z 2118/2218 22006KT P6SM SKC FM212000 24012G20KT P6SM SCT080 FM220000 26010KT P6SM FEW080 FM220500 VRB06KT P6SM SKC